sensor_id;sensor_type;location;lat;lon;timestamp;temperature;humidity
40023;DHT22;25713;-35.352;149.036;2024-02-23T00:01:45;22.40;94.20
40023;DHT22;25713;-35.352;149.036;2024-02-23T00:04:16;22.40;94.00
40023;DHT22;25713;-35.352;149.036;2024-02-23T00:06:46;22.30;94.90
40023;DHT22;25713;-35.352;149.036;2024-02-23T00:09:16;22.30;94.50
40023;DHT22;25713;-35.352;149.036;2024-02-23T00:11:47;22.30;94.30
40023;DHT22;25713;-35.352;149.036;2024-02-23T00:14:17;22.30;93.90
40023;DHT22;25713;-35.352;149.036;2024-02-23T00:16:47;22.30;93.80
40023;DHT22;25713;-35.352;149.036;2024-02-23T00:19:19;22.30;94.10
40023;DHT22;25713;-35.352;149.036;2024-02-23T00:21:49;22.30;94.50
40023;DHT22;25713;-35.352;149.036;2024-02-23T00:24:19;22.30;94.10
40023;DHT22;25713;-35.352;149.036;2024-02-23T00:26:49;22.30;94.30
40023;DHT22;25713;-35.352;149.036;2024-02-23T00:29:19;22.30;93.60
40023;DHT22;25713;-35.352;149.036;2024-02-23T00:31:49;22.30;93.60
40023;DHT22;25713;-35.352;149.036;2024-02-23T00:34:20;22.40;93.70
40023;DHT22;25713;-35.352;149.036;2024-02-23T00:36:50;22.40;93.80
40023;DHT22;25713;-35.352;149.036;2024-02-23T00:39:20;22.50;93.60
40023;DHT22;25713;-35.352;149.036;2024-02-23T00:41:50;22.60;93.40
40023;DHT22;25713;-35.352;149.036;2024-02-23T00:44:20;22.60;93.30
40023;DHT22;25713;-35.352;149.036;2024-02-23T00:46:50;22.60;93.00
40023;DHT22;25713;-35.352;149.036;2024-02-23T00:49:22;22.70;93.00
40023;DHT22;25713;-35.352;149.036;2024-02-23T00:51:50;22.70;93.30
40023;DHT22;25713;-35.352;149.036;2024-02-23T00:54:20;22.60;96.30
40023;DHT22;25713;-35.352;149.036;2024-02-23T00:56:50;22.40;97.00
40023;DHT22;25713;-35.352;149.036;2024-02-23T00:59:21;22.50;95.60
40023;DHT22;25713;-35.352;149.036;2024-02-23T01:01:51;22.40;96.80
40023;DHT22;25713;-35.352;149.036;2024-02-23T01:04:32;22.40;95.80
40023;DHT22;25713;-35.352;149.036;2024-02-23T01:07:02;22.40;97.00
40023;DHT22;25713;-35.352;149.036;2024-02-23T01:09:35;22.30;98.00
40023;DHT22;25713;-35.352;149.036;2024-02-23T01:12:05;22.30;97.40
40023;DHT22;25713;-35.352;149.036;2024-02-23T01:14:35;22.30;96.10
40023;DHT22;25713;-35.352;149.036;2024-02-23T01:17:07;22.30;97.00
40023;DHT22;25713;-35.352;149.036;2024-02-23T01:19:43;22.30;96.90
40023;DHT22;25713;-35.352;149.036;2024-02-23T01:22:36;22.20;97.00
40023;DHT22;25713;-35.352;149.036;2024-02-23T01:25:12;22.20;97.40
40023;DHT22;25713;-35.352;149.036;2024-02-23T01:27:47;22.20;97.10
40023;DHT22;25713;-35.352;149.036;2024-02-23T01:30:17;22.20;96.80
40023;DHT22;25713;-35.352;149.036;2024-02-23T01:32:47;22.20;96.80
40023;DHT22;25713;-35.352;149.036;2024-02-23T01:35:20;22.20;97.10
40023;DHT22;25713;-35.352;149.036;2024-02-23T01:37:53;22.20;96.80
40023;DHT22;25713;-35.352;149.036;2024-02-23T01:40:23;22.20;96.60
40023;DHT22;25713;-35.352;149.036;2024-02-23T01:43:02;22.30;96.70
40023;DHT22;25713;-35.352;149.036;2024-02-23T01:45:35;22.20;97.30
40023;DHT22;25713;-35.352;149.036;2024-02-23T01:48:05;22.20;98.10
40023;DHT22;25713;-35.352;149.036;2024-02-23T01:50:38;22.10;97.80
40023;DHT22;25713;-35.352;149.036;2024-02-23T01:53:09;22.10;98.20
40023;DHT22;25713;-35.352;149.036;2024-02-23T01:55:42;22.10;98.00
40023;DHT22;25713;-35.352;149.036;2024-02-23T01:58:13;22.00;98.40
40023;DHT22;25713;-35.352;149.036;2024-02-23T02:00:43;22.00;98.50
40023;DHT22;25713;-35.352;149.036;2024-02-23T02:03:13;21.90;98.20
40023;DHT22;25713;-35.352;149.036;2024-02-23T02:05:45;21.90;98.60
40023;DHT22;25713;-35.352;149.036;2024-02-23T02:08:16;21.80;98.50
40023;DHT22;25713;-35.352;149.036;2024-02-23T02:10:47;21.80;98.20
40023;DHT22;25713;-35.352;149.036;2024-02-23T02:13:17;21.90;98.60
40023;DHT22;25713;-35.352;149.036;2024-02-23T02:15:47;21.90;98.30
40023;DHT22;25713;-35.352;149.036;2024-02-23T02:18:20;22.00;97.90
40023;DHT22;25713;-35.352;149.036;2024-02-23T02:20:55;22.00;97.80
40023;DHT22;25713;-35.352;149.036;2024-02-23T02:23:26;22.00;98.10
40023;DHT22;25713;-35.352;149.036;2024-02-23T02:25:56;22.10;99.20
40023;DHT22;25713;-35.352;149.036;2024-02-23T02:28:26;22.20;98.80
40023;DHT22;25713;-35.352;149.036;2024-02-23T02:30:55;22.20;99.30
40023;DHT22;25713;-35.352;149.036;2024-02-23T02:33:25;22.20;99.80
40023;DHT22;25713;-35.352;149.036;2024-02-23T02:35:56;22.20;99.90
40023;DHT22;25713;-35.352;149.036;2024-02-23T02:38:26;22.20;99.20
40023;DHT22;25713;-35.352;149.036;2024-02-23T02:40:55;22.30;99.40
40023;DHT22;25713;-35.352;149.036;2024-02-23T02:43:24;22.30;99.90
40023;DHT22;25713;-35.352;149.036;2024-02-23T02:45:54;22.40;99.50
40023;DHT22;25713;-35.352;149.036;2024-02-23T02:48:23;22.50;99.10
40023;DHT22;25713;-35.352;149.036;2024-02-23T02:50:55;22.50;99.40
40023;DHT22;25713;-35.352;149.036;2024-02-23T02:53:24;22.50;98.60
40023;DHT22;25713;-35.352;149.036;2024-02-23T02:55:54;22.50;98.50
40023;DHT22;25713;-35.352;149.036;2024-02-23T02:58:23;22.60;98.80
40023;DHT22;25713;-35.352;149.036;2024-02-23T03:00:53;22.60;98.80
40023;DHT22;25713;-35.352;149.036;2024-02-23T03:03:22;22.60;98.70
40023;DHT22;25713;-35.352;149.036;2024-02-23T03:05:52;22.60;98.20
40023;DHT22;25713;-35.352;149.036;2024-02-23T03:08:23;22.60;98.20
40023;DHT22;25713;-35.352;149.036;2024-02-23T03:10:52;22.60;98.10
40023;DHT22;25713;-35.352;149.036;2024-02-23T03:13:22;22.60;98.50
40023;DHT22;25713;-35.352;149.036;2024-02-23T03:15:51;22.60;98.40
40023;DHT22;25713;-35.352;149.036;2024-02-23T03:18:21;22.70;98.10
40023;DHT22;25713;-35.352;149.036;2024-02-23T03:20:50;22.70;98.50
40023;DHT22;25713;-35.352;149.036;2024-02-23T03:23:22;22.80;98.40
40023;DHT22;25713;-35.352;149.036;2024-02-23T03:25:51;22.90;98.10
40023;DHT22;25713;-35.352;149.036;2024-02-23T03:28:20;23.00;98.60
40023;DHT22;25713;-35.352;149.036;2024-02-23T03:30:50;23.00;97.90
40023;DHT22;25713;-35.352;149.036;2024-02-23T03:33:19;23.10;98.00
40023;DHT22;25713;-35.352;149.036;2024-02-23T03:35:49;23.10;97.60
40023;DHT22;25713;-35.352;149.036;2024-02-23T03:38:18;23.20;97.60
40023;DHT22;25713;-35.352;149.036;2024-02-23T03:40:50;23.30;97.30
40023;DHT22;25713;-35.352;149.036;2024-02-23T03:43:19;23.30;97.30
40023;DHT22;25713;-35.352;149.036;2024-02-23T03:45:49;23.40;97.70
40023;DHT22;25713;-35.352;149.036;2024-02-23T03:48:18;23.50;96.60
40023;DHT22;25713;-35.352;149.036;2024-02-23T03:50:47;23.50;96.10
40023;DHT22;25713;-35.352;149.036;2024-02-23T03:53:17;23.50;96.30
40023;DHT22;25713;-35.352;149.036;2024-02-23T03:55:48;23.50;96.50
40023;DHT22;25713;-35.352;149.036;2024-02-23T03:58:18;23.60;95.90
40023;DHT22;25713;-35.352;149.036;2024-02-23T04:00:47;23.70;95.70
40023;DHT22;25713;-35.352;149.036;2024-02-23T04:03:16;23.70;95.00
40023;DHT22;25713;-35.352;149.036;2024-02-23T04:05:46;23.70;95.20
40023;DHT22;25713;-35.352;149.036;2024-02-23T04:08:15;23.70;95.20
40023;DHT22;25713;-35.352;149.036;2024-02-23T04:10:45;23.80;95.20
40023;DHT22;25713;-35.352;149.036;2024-02-23T04:13:16;23.80;94.80
40023;DHT22;25713;-35.352;149.036;2024-02-23T04:15:46;23.80;94.60
40023;DHT22;25713;-35.352;149.036;2024-02-23T04:18:16;23.80;94.50
40023;DHT22;25713;-35.352;149.036;2024-02-23T04:20:45;23.80;94.10
40023;DHT22;25713;-35.352;149.036;2024-02-23T04:23:15;23.90;94.00
40023;DHT22;25713;-35.352;149.036;2024-02-23T04:25:44;23.90;93.80
40023;DHT22;25713;-35.352;149.036;2024-02-23T04:28:16;23.90;94.10
40023;DHT22;25713;-35.352;149.036;2024-02-23T04:30:45;24.00;93.90
40023;DHT22;25713;-35.352;149.036;2024-02-23T04:33:15;24.00;93.90
40023;DHT22;25713;-35.352;149.036;2024-02-23T04:35:44;24.10;94.60
40023;DHT22;25713;-35.352;149.036;2024-02-23T04:38:14;24.20;93.30
40023;DHT22;25713;-35.352;149.036;2024-02-23T04:40:43;24.20;93.70
40023;DHT22;25713;-35.352;149.036;2024-02-23T04:43:13;24.10;93.90
40023;DHT22;25713;-35.352;149.036;2024-02-23T04:45:45;24.10;93.90
40023;DHT22;25713;-35.352;149.036;2024-02-23T04:48:15;24.10;93.30
40023;DHT22;25713;-35.352;149.036;2024-02-23T04:50:44;24.20;93.20
40023;DHT22;25713;-35.352;149.036;2024-02-23T04:53:14;24.20;93.20
40023;DHT22;25713;-35.352;149.036;2024-02-23T04:55:43;24.20;92.70
40023;DHT22;25713;-35.352;149.036;2024-02-23T04:58:13;24.40;91.10
40023;DHT22;25713;-35.352;149.036;2024-02-23T05:00:44;24.40;89.00
40023;DHT22;25713;-35.352;149.036;2024-02-23T05:03:14;24.40;86.80
40023;DHT22;25713;-35.352;149.036;2024-02-23T05:05:43;24.60;85.20
40023;DHT22;25713;-35.352;149.036;2024-02-23T05:08:14;24.70;85.10
40023;DHT22;25713;-35.352;149.036;2024-02-23T05:10:44;25.00;81.80
40023;DHT22;25713;-35.352;149.036;2024-02-23T05:13:13;25.00;77.90
40023;DHT22;25713;-35.352;149.036;2024-02-23T05:15:44;24.90;83.00
40023;DHT22;25713;-35.352;149.036;2024-02-23T05:18:14;24.90;80.80
40023;DHT22;25713;-35.352;149.036;2024-02-23T05:20:43;25.00;76.10
40023;DHT22;25713;-35.352;149.036;2024-02-23T05:23:13;25.00;77.20
40023;DHT22;25713;-35.352;149.036;2024-02-23T05:25:42;24.80;76.50
40023;DHT22;25713;-35.352;149.036;2024-02-23T05:28:12;24.90;74.70
40023;DHT22;25713;-35.352;149.036;2024-02-23T05:30:43;24.90;78.00
40023;DHT22;25713;-35.352;149.036;2024-02-23T05:33:12;24.80;76.70
40023;DHT22;25713;-35.352;149.036;2024-02-23T05:35:42;24.80;76.10
40023;DHT22;25713;-35.352;149.036;2024-02-23T05:38:11;24.90;75.80
40023;DHT22;25713;-35.352;149.036;2024-02-23T05:40:41;25.00;76.20
40023;DHT22;25713;-35.352;149.036;2024-02-23T05:43:11;25.00;76.70
40023;DHT22;25713;-35.352;149.036;2024-02-23T05:45:40;25.20;74.50
40023;DHT22;25713;-35.352;149.036;2024-02-23T05:48:12;25.40;73.10
40023;DHT22;25713;-35.352;149.036;2024-02-23T05:50:41;25.30;75.70
40023;DHT22;25713;-35.352;149.036;2024-02-23T05:53:11;25.30;74.60
40023;DHT22;25713;-35.352;149.036;2024-02-23T05:55:41;25.30;75.10
40023;DHT22;25713;-35.352;149.036;2024-02-23T05:58:10;25.20;73.90
40023;DHT22;25713;-35.352;149.036;2024-02-23T06:00:40;25.30;75.90
40023;DHT22;25713;-35.352;149.036;2024-02-23T06:03:11;25.20;77.00
40023;DHT22;25713;-35.352;149.036;2024-02-23T06:05:40;25.20;77.60
40023;DHT22;25713;-35.352;149.036;2024-02-23T06:08:10;25.20;75.80
40023;DHT22;25713;-35.352;149.036;2024-02-23T06:10:39;25.20;76.00
40023;DHT22;25713;-35.352;149.036;2024-02-23T06:13:09;25.00;77.80
40023;DHT22;25713;-35.352;149.036;2024-02-23T06:15:38;25.00;77.20
40023;DHT22;25713;-35.352;149.036;2024-02-23T06:18:10;25.00;75.70
40023;DHT22;25713;-35.352;149.036;2024-02-23T06:20:40;25.00;75.30
40023;DHT22;25713;-35.352;149.036;2024-02-23T06:23:10;25.00;77.30
40023;DHT22;25713;-35.352;149.036;2024-02-23T06:25:40;25.00;73.80
40023;DHT22;25713;-35.352;149.036;2024-02-23T06:28:09;25.10;75.20
40023;DHT22;25713;-35.352;149.036;2024-02-23T06:30:38;25.10;74.60
40023;DHT22;25713;-35.352;149.036;2024-02-23T06:33:08;25.00;76.50
40023;DHT22;25713;-35.352;149.036;2024-02-23T06:35:39;25.00;75.90
40023;DHT22;25713;-35.352;149.036;2024-02-23T06:38:09;25.00;75.00
40023;DHT22;25713;-35.352;149.036;2024-02-23T06:40:38;25.10;74.60
40023;DHT22;25713;-35.352;149.036;2024-02-23T06:43:07;25.00;71.70
40023;DHT22;25713;-35.352;149.036;2024-02-23T06:45:37;25.00;71.90
40023;DHT22;25713;-35.352;149.036;2024-02-23T06:48:07;25.20;72.00
40023;DHT22;25713;-35.352;149.036;2024-02-23T06:50:38;25.10;72.60
40023;DHT22;25713;-35.352;149.036;2024-02-23T06:53:08;25.00;71.20
40023;DHT22;25713;-35.352;149.036;2024-02-23T06:55:37;25.00;71.90
40023;DHT22;25713;-35.352;149.036;2024-02-23T06:58:07;25.00;70.70
40023;DHT22;25713;-35.352;149.036;2024-02-23T07:00:36;25.00;72.20
40023;DHT22;25713;-35.352;149.036;2024-02-23T07:03:06;25.10;71.30
40023;DHT22;25713;-35.352;149.036;2024-02-23T07:05:35;25.00;73.40
40023;DHT22;25713;-35.352;149.036;2024-02-23T07:08:07;25.10;69.70
40023;DHT22;25713;-35.352;149.036;2024-02-23T07:10:36;25.10;69.90
40023;DHT22;25713;-35.352;149.036;2024-02-23T07:13:06;25.00;70.20
40023;DHT22;25713;-35.352;149.036;2024-02-23T07:15:35;25.00;68.10
40023;DHT22;25713;-35.352;149.036;2024-02-23T07:18:05;24.90;66.50
40023;DHT22;25713;-35.352;149.036;2024-02-23T07:20:35;24.90;68.20
40023;DHT22;25713;-35.352;149.036;2024-02-23T07:23:06;24.90;67.50
40023;DHT22;25713;-35.352;149.036;2024-02-23T07:25:36;24.90;66.10
40023;DHT22;25713;-35.352;149.036;2024-02-23T07:28:05;24.80;65.10
40023;DHT22;25713;-35.352;149.036;2024-02-23T07:30:35;24.80;67.60
40023;DHT22;25713;-35.352;149.036;2024-02-23T07:33:05;24.60;66.80
40023;DHT22;25713;-35.352;149.036;2024-02-23T07:35:35;24.60;65.10
40023;DHT22;25713;-35.352;149.036;2024-02-23T07:38:07;24.50;68.60
40023;DHT22;25713;-35.352;149.036;2024-02-23T07:40:36;24.50;69.30
40023;DHT22;25713;-35.352;149.036;2024-02-23T07:43:06;24.40;65.60
40023;DHT22;25713;-35.352;149.036;2024-02-23T07:45:35;24.40;65.50
40023;DHT22;25713;-35.352;149.036;2024-02-23T07:48:05;24.40;64.50
40023;DHT22;25713;-35.352;149.036;2024-02-23T07:50:34;24.40;67.10
40023;DHT22;25713;-35.352;149.036;2024-02-23T07:53:06;24.30;66.30
40023;DHT22;25713;-35.352;149.036;2024-02-23T07:55:35;24.20;67.00
40023;DHT22;25713;-35.352;149.036;2024-02-23T07:58:05;24.20;68.60
40023;DHT22;25713;-35.352;149.036;2024-02-23T08:00:34;24.20;66.80
40023;DHT22;25713;-35.352;149.036;2024-02-23T08:03:04;24.10;66.80
40023;DHT22;25713;-35.352;149.036;2024-02-23T08:05:33;24.10;67.40
40023;DHT22;25713;-35.352;149.036;2024-02-23T08:08:03;24.10;67.40
40023;DHT22;25713;-35.352;149.036;2024-02-23T08:10:34;24.00;68.30
40023;DHT22;25713;-35.352;149.036;2024-02-23T08:13:04;24.00;68.50
40023;DHT22;25713;-35.352;149.036;2024-02-23T08:15:33;24.00;68.90
40023;DHT22;25713;-35.352;149.036;2024-02-23T08:18:03;24.00;69.60
40023;DHT22;25713;-35.352;149.036;2024-02-23T08:20:32;23.90;68.30
40023;DHT22;25713;-35.352;149.036;2024-02-23T08:23:01;23.90;71.00
40023;DHT22;25713;-35.352;149.036;2024-02-23T08:25:33;23.90;68.50
40023;DHT22;25713;-35.352;149.036;2024-02-23T08:28:02;23.80;70.10
40023;DHT22;25713;-35.352;149.036;2024-02-23T08:30:32;23.80;68.70
40023;DHT22;25713;-35.352;149.036;2024-02-23T08:33:01;23.80;67.90
40023;DHT22;25713;-35.352;149.036;2024-02-23T08:35:30;23.80;67.90
40023;DHT22;25713;-35.352;149.036;2024-02-23T08:38:00;23.80;69.20
40023;DHT22;25713;-35.352;149.036;2024-02-23T08:40:29;23.80;69.50
40023;DHT22;25713;-35.352;149.036;2024-02-23T08:43:01;23.70;68.70
40023;DHT22;25713;-35.352;149.036;2024-02-23T08:45:30;23.70;69.20
40023;DHT22;25713;-35.352;149.036;2024-02-23T08:48:00;23.70;70.60
40023;DHT22;25713;-35.352;149.036;2024-02-23T08:50:29;23.60;67.80
40023;DHT22;25713;-35.352;149.036;2024-02-23T08:52:59;23.60;68.90
40023;DHT22;25713;-35.352;149.036;2024-02-23T08:55:29;23.60;71.30
40023;DHT22;25713;-35.352;149.036;2024-02-23T08:58:00;23.50;69.50
40023;DHT22;25713;-35.352;149.036;2024-02-23T09:00:29;23.50;69.20
40023;DHT22;25713;-35.352;149.036;2024-02-23T09:02:59;23.50;71.20
40023;DHT22;25713;-35.352;149.036;2024-02-23T09:05:28;23.40;72.50
40023;DHT22;25713;-35.352;149.036;2024-02-23T09:07:57;23.40;71.50
40023;DHT22;25713;-35.352;149.036;2024-02-23T09:10:27;23.40;72.10
40023;DHT22;25713;-35.352;149.036;2024-02-23T09:12:58;23.40;73.60
40023;DHT22;25713;-35.352;149.036;2024-02-23T09:15:28;23.40;72.90
40023;DHT22;25713;-35.352;149.036;2024-02-23T09:17:57;23.30;69.60
40023;DHT22;25713;-35.352;149.036;2024-02-23T09:20:27;23.30;69.80
40023;DHT22;25713;-35.352;149.036;2024-02-23T09:22:56;23.20;66.20
40023;DHT22;25713;-35.352;149.036;2024-02-23T09:25:25;23.10;71.20
40023;DHT22;25713;-35.352;149.036;2024-02-23T09:28:00;23.10;65.80
40023;DHT22;25713;-35.352;149.036;2024-02-23T09:30:29;23.10;71.80
40023;DHT22;25713;-35.352;149.036;2024-02-23T09:32:58;23.10;68.70
40023;DHT22;25713;-35.352;149.036;2024-02-23T09:35:28;23.10;69.80
40023;DHT22;25713;-35.352;149.036;2024-02-23T09:37:57;23.10;63.30
40023;DHT22;25713;-35.352;149.036;2024-02-23T09:40:27;23.10;66.60
40023;DHT22;25713;-35.352;149.036;2024-02-23T09:42:59;23.00;65.60
40023;DHT22;25713;-35.352;149.036;2024-02-23T09:45:29;23.00;71.30
40023;DHT22;25713;-35.352;149.036;2024-02-23T09:47:59;23.00;67.20
40023;DHT22;25713;-35.352;149.036;2024-02-23T09:50:30;22.90;64.70
40023;DHT22;25713;-35.352;149.036;2024-02-23T09:53:02;22.90;73.00
40023;DHT22;25713;-35.352;149.036;2024-02-23T09:55:33;22.90;69.80
40023;DHT22;25713;-35.352;149.036;2024-02-23T09:58:05;22.90;67.80
40023;DHT22;25713;-35.352;149.036;2024-02-23T10:00:36;22.80;66.60
40023;DHT22;25713;-35.352;149.036;2024-02-23T10:03:07;22.70;64.50
40023;DHT22;25713;-35.352;149.036;2024-02-23T10:05:37;22.70;66.10
40023;DHT22;25713;-35.352;149.036;2024-02-23T10:08:06;22.60;69.20
40023;DHT22;25713;-35.352;149.036;2024-02-23T10:10:36;22.70;70.80
40023;DHT22;25713;-35.352;149.036;2024-02-23T10:13:08;22.70;73.10
40023;DHT22;25713;-35.352;149.036;2024-02-23T10:15:38;22.70;72.30
40023;DHT22;25713;-35.352;149.036;2024-02-23T10:18:08;22.70;70.20
40023;DHT22;25713;-35.352;149.036;2024-02-23T10:20:37;22.70;69.30
40023;DHT22;25713;-35.352;149.036;2024-02-23T10:23:07;22.70;72.20
40023;DHT22;25713;-35.352;149.036;2024-02-23T10:25:37;22.70;71.70
40023;DHT22;25713;-35.352;149.036;2024-02-23T10:28:08;22.80;70.30
40023;DHT22;25713;-35.352;149.036;2024-02-23T10:30:38;22.70;72.40
40023;DHT22;25713;-35.352;149.036;2024-02-23T10:33:07;22.70;71.20
40023;DHT22;25713;-35.352;149.036;2024-02-23T10:35:39;22.60;72.40
40023;DHT22;25713;-35.352;149.036;2024-02-23T10:38:10;22.60;73.90
40023;DHT22;25713;-35.352;149.036;2024-02-23T10:40:40;22.50;75.00
40023;DHT22;25713;-35.352;149.036;2024-02-23T10:43:15;22.40;75.10
40023;DHT22;25713;-35.352;149.036;2024-02-23T10:45:46;22.40;75.80
40023;DHT22;25713;-35.352;149.036;2024-02-23T10:48:16;22.30;77.40
40023;DHT22;25713;-35.352;149.036;2024-02-23T10:50:46;22.30;77.70
40023;DHT22;25713;-35.352;149.036;2024-02-23T10:53:18;22.20;77.60
40023;DHT22;25713;-35.352;149.036;2024-02-23T10:55:50;22.30;78.40
40023;DHT22;25713;-35.352;149.036;2024-02-23T10:58:23;22.30;78.30
40023;DHT22;25713;-35.352;149.036;2024-02-23T11:00:52;22.20;78.70
40023;DHT22;25713;-35.352;149.036;2024-02-23T11:03:22;22.20;79.60
40023;DHT22;25713;-35.352;149.036;2024-02-23T11:05:54;22.20;79.60
40023;DHT22;25713;-35.352;149.036;2024-02-23T11:08:24;22.10;80.00
40023;DHT22;25713;-35.352;149.036;2024-02-23T11:10:56;22.10;79.60
40023;DHT22;25713;-35.352;149.036;2024-02-23T11:13:35;22.20;79.90
40023;DHT22;25713;-35.352;149.036;2024-02-23T11:16:06;22.10;80.20
40023;DHT22;25713;-35.352;149.036;2024-02-23T11:18:36;22.10;79.70
40023;DHT22;25713;-35.352;149.036;2024-02-23T11:21:08;22.10;80.20
40023;DHT22;25713;-35.352;149.036;2024-02-23T11:23:42;22.20;79.80
40023;DHT22;25713;-35.352;149.036;2024-02-23T11:26:12;22.10;79.20
40023;DHT22;25713;-35.352;149.036;2024-02-23T11:28:48;22.10;80.40
40023;DHT22;25713;-35.352;149.036;2024-02-23T11:31:21;22.10;80.10
40023;DHT22;25713;-35.352;149.036;2024-02-23T11:33:52;22.10;80.40
40023;DHT22;25713;-35.352;149.036;2024-02-23T11:36:28;22.10;80.30
40023;DHT22;25713;-35.352;149.036;2024-02-23T11:38:58;22.00;80.90
40023;DHT22;25713;-35.352;149.036;2024-02-23T11:41:28;22.10;80.70
40023;DHT22;25713;-35.352;149.036;2024-02-23T11:44:00;22.00;80.90
40023;DHT22;25713;-35.352;149.036;2024-02-23T11:46:29;22.10;79.70
40023;DHT22;25713;-35.352;149.036;2024-02-23T11:48:59;22.00;80.60
40023;DHT22;25713;-35.352;149.036;2024-02-23T11:51:28;22.00;80.40
40023;DHT22;25713;-35.352;149.036;2024-02-23T11:53:58;22.00;80.30
40023;DHT22;25713;-35.352;149.036;2024-02-23T11:56:28;22.00;80.40
40023;DHT22;25713;-35.352;149.036;2024-02-23T11:59:00;21.90;80.40
40023;DHT22;25713;-35.352;149.036;2024-02-23T12:01:31;22.00;80.10
40023;DHT22;25713;-35.352;149.036;2024-02-23T12:04:00;22.00;80.40
40023;DHT22;25713;-35.352;149.036;2024-02-23T12:06:30;22.00;80.00
40023;DHT22;25713;-35.352;149.036;2024-02-23T12:09:00;21.90;80.00
40023;DHT22;25713;-35.352;149.036;2024-02-23T12:11:30;21.90;80.10
40023;DHT22;25713;-35.352;149.036;2024-02-23T12:14:02;21.90;80.40
40023;DHT22;25713;-35.352;149.036;2024-02-23T12:16:31;22.00;80.10
40023;DHT22;25713;-35.352;149.036;2024-02-23T12:19:02;21.90;80.10
40023;DHT22;25713;-35.352;149.036;2024-02-23T12:21:33;22.00;80.20
40023;DHT22;25713;-35.352;149.036;2024-02-23T12:24:05;21.90;79.70
40023;DHT22;25713;-35.352;149.036;2024-02-23T12:26:35;21.90;80.50
40023;DHT22;25713;-35.352;149.036;2024-02-23T12:29:06;21.90;80.40
40023;DHT22;25713;-35.352;149.036;2024-02-23T12:31:35;21.80;80.40
40023;DHT22;25713;-35.352;149.036;2024-02-23T12:34:04;21.80;80.70
40023;DHT22;25713;-35.352;149.036;2024-02-23T12:36:36;21.70;81.20
40023;DHT22;25713;-35.352;149.036;2024-02-23T12:39:06;21.70;80.90
40023;DHT22;25713;-35.352;149.036;2024-02-23T12:41:35;21.70;81.30
40023;DHT22;25713;-35.352;149.036;2024-02-23T12:44:08;21.70;80.80
40023;DHT22;25713;-35.352;149.036;2024-02-23T12:46:38;21.70;81.40
40023;DHT22;25713;-35.352;149.036;2024-02-23T12:49:07;21.80;81.00
40023;DHT22;25713;-35.352;149.036;2024-02-23T12:51:37;21.80;81.00
40023;DHT22;25713;-35.352;149.036;2024-02-23T12:54:06;21.80;81.10
40023;DHT22;25713;-35.352;149.036;2024-02-23T12:56:35;21.80;81.00
40023;DHT22;25713;-35.352;149.036;2024-02-23T12:59:07;21.80;80.70
40023;DHT22;25713;-35.352;149.036;2024-02-23T13:01:36;21.80;80.90
40023;DHT22;25713;-35.352;149.036;2024-02-23T13:04:06;21.80;80.90
40023;DHT22;25713;-35.352;149.036;2024-02-23T13:06:36;21.80;81.10
40023;DHT22;25713;-35.352;149.036;2024-02-23T13:09:06;21.80;80.70
40023;DHT22;25713;-35.352;149.036;2024-02-23T13:11:36;21.80;80.90
40023;DHT22;25713;-35.352;149.036;2024-02-23T13:14:09;21.80;81.00
40023;DHT22;25713;-35.352;149.036;2024-02-23T13:16:39;21.80;81.00
40023;DHT22;25713;-35.352;149.036;2024-02-23T13:19:08;21.80;80.80
40023;DHT22;25713;-35.352;149.036;2024-02-23T13:21:37;21.80;81.30
40023;DHT22;25713;-35.352;149.036;2024-02-23T13:24:07;21.80;81.00
40023;DHT22;25713;-35.352;149.036;2024-02-23T13:26:36;21.70;81.00
40023;DHT22;25713;-35.352;149.036;2024-02-23T13:29:08;21.70;81.00
40023;DHT22;25713;-35.352;149.036;2024-02-23T13:31:36;21.60;81.50
40023;DHT22;25713;-35.352;149.036;2024-02-23T13:34:06;21.60;81.30
40023;DHT22;25713;-35.352;149.036;2024-02-23T13:36:36;21.60;81.30
40023;DHT22;25713;-35.352;149.036;2024-02-23T13:39:06;21.60;81.20
40023;DHT22;25713;-35.352;149.036;2024-02-23T13:41:37;21.60;81.50
40023;DHT22;25713;-35.352;149.036;2024-02-23T13:44:09;21.60;81.50
40023;DHT22;25713;-35.352;149.036;2024-02-23T13:46:39;21.60;81.30
40023;DHT22;25713;-35.352;149.036;2024-02-23T13:49:09;21.60;81.20
40023;DHT22;25713;-35.352;149.036;2024-02-23T13:51:38;21.60;81.00
40023;DHT22;25713;-35.352;149.036;2024-02-23T13:54:08;21.60;81.20
40023;DHT22;25713;-35.352;149.036;2024-02-23T13:56:37;21.50;81.10
40023;DHT22;25713;-35.352;149.036;2024-02-23T13:59:09;21.50;81.20
40023;DHT22;25713;-35.352;149.036;2024-02-23T14:01:38;21.50;81.10
40023;DHT22;25713;-35.352;149.036;2024-02-23T14:04:08;21.60;81.10
40023;DHT22;25713;-35.352;149.036;2024-02-23T14:06:38;21.60;80.90
40023;DHT22;25713;-35.352;149.036;2024-02-23T14:09:08;21.50;81.20
40023;DHT22;25713;-35.352;149.036;2024-02-23T14:11:37;21.60;81.20
40023;DHT22;25713;-35.352;149.036;2024-02-23T14:14:10;21.60;80.90
40023;DHT22;25713;-35.352;149.036;2024-02-23T14:16:40;21.60;81.00
40023;DHT22;25713;-35.352;149.036;2024-02-23T14:19:10;21.60;80.80
40023;DHT22;25713;-35.352;149.036;2024-02-23T14:21:39;21.60;80.80
40023;DHT22;25713;-35.352;149.036;2024-02-23T14:24:09;21.50;80.70
40023;DHT22;25713;-35.352;149.036;2024-02-23T14:26:38;21.50;80.90
40023;DHT22;25713;-35.352;149.036;2024-02-23T14:29:10;21.50;80.70
40023;DHT22;25713;-35.352;149.036;2024-02-23T14:31:39;21.50;80.90
40023;DHT22;25713;-35.352;149.036;2024-02-23T14:34:09;21.50;80.60
40023;DHT22;25713;-35.352;149.036;2024-02-23T14:36:38;21.50;80.80
40023;DHT22;25713;-35.352;149.036;2024-02-23T14:39:08;21.50;81.20
40023;DHT22;25713;-35.352;149.036;2024-02-23T14:41:38;21.50;80.80
40023;DHT22;25713;-35.352;149.036;2024-02-23T15:46:40;21.10;81.20
40023;DHT22;25713;-35.352;149.036;2024-02-23T15:49:09;21.10;82.00
40023;DHT22;25713;-35.352;149.036;2024-02-23T15:51:39;21.10;82.40
40023;DHT22;25713;-35.352;149.036;2024-02-23T15:54:08;21.10;82.50
40023;DHT22;25713;-35.352;149.036;2024-02-23T15:56:38;21.10;82.40
40023;DHT22;25713;-35.352;149.036;2024-02-23T15:59:08;21.10;82.10
40023;DHT22;25713;-35.352;149.036;2024-02-23T16:01:39;21.10;82.30
40023;DHT22;25713;-35.352;149.036;2024-02-23T16:04:09;21.10;82.10
40023;DHT22;25713;-35.352;149.036;2024-02-23T16:06:38;21.20;82.10
40023;DHT22;25713;-35.352;149.036;2024-02-23T16:09:08;21.20;81.60